sensor_id;sensor_type;location;lat;lon;timestamp;P1;durP1;ratioP1;P2;durP2;ratioP2
68803;SDS011;55787;52.678;13.314;2022-09-12T00:00:34;8.70;;;3.20;;
68803;SDS011;55787;52.678;13.314;2022-09-12T00:03:00;9.77;;;3.30;;
68803;SDS011;55787;52.678;13.314;2022-09-12T00:05:26;11.27;;;3.50;;
68803;SDS011;55787;52.678;13.314;2022-09-12T00:07:53;9.68;;;3.60;;
68803;SDS011;55787;52.678;13.314;2022-09-12T00:10:19;8.27;;;3.28;;
68803;SDS011;55787;52.678;13.314;2022-09-12T00:12:46;7.63;;;3.07;;
68803;SDS011;55787;52.678;13.314;2022-09-12T00:15:12;9.20;;;3.25;;
68803;SDS011;55787;52.678;13.314;2022-09-12T00:17:39;9.43;;;3.60;;
68803;SDS011;55787;52.678;13.314;2022-09-12T00:20:06;14.05;;;3.40;;
68803;SDS011;55787;52.678;13.314;2022-09-12T00:22:34;8.55;;;3.05;;
68803;SDS011;55787;52.678;13.314;2022-09-12T00:25:02;8.97;;;3.07;;
68803;SDS011;55787;52.678;13.314;2022-09-12T00:27:29;9.05;;;3.03;;
68803;SDS011;55787;52.678;13.314;2022-09-12T00:29:56;7.95;;;3.10;;
68803;SDS011;55787;52.678;13.314;2022-09-12T00:32:22;7.75;;;3.03;;
68803;SDS011;55787;52.678;13.314;2022-09-12T00:34:49;8.23;;;2.80;;
68803;SDS011;55787;52.678;13.314;2022-09-12T00:37:15;8.13;;;2.70;;
68803;SDS011;55787;52.678;13.314;2022-09-12T00:39:41;8.40;;;3.30;;
68803;SDS011;55787;52.678;13.314;2022-09-12T00:42:08;7.90;;;3.33;;
68803;SDS011;55787;52.678;13.314;2022-09-12T00:47:05;8.45;;;3.38;;
68803;SDS011;55787;52.678;13.314;2022-09-12T00:49:51;8.67;;;3.20;;
68803;SDS011;55787;52.678;13.314;2022-09-12T00:55:20;8.05;;;3.30;;
68803;SDS011;55787;52.678;13.314;2022-09-12T00:57:56;8.82;;;3.20;;
68803;SDS011;55787;52.678;13.314;2022-09-12T01:00:27;8.68;;;3.45;;
68803;SDS011;55787;52.678;13.314;2022-09-12T01:02:58;8.80;;;3.17;;
68803;SDS011;55787;52.678;13.314;2022-09-12T01:05:27;10.45;;;3.03;;
68803;SDS011;55787;52.678;13.314;2022-09-12T01:07:55;10.02;;;3.40;;
68803;SDS011;55787;52.678;13.314;2022-09-12T01:10:22;8.98;;;3.25;;
68803;SDS011;55787;52.678;13.314;2022-09-12T01:12:49;8.65;;;3.60;;
68803;SDS011;55787;52.678;13.314;2022-09-12T01:15:16;8.53;;;3.10;;
68803;SDS011;55787;52.678;13.314;2022-09-12T01:20:44;8.85;;;3.28;;
68803;SDS011;55787;52.678;13.314;2022-09-12T01:23:28;8.90;;;3.45;;
68803;SDS011;55787;52.678;13.314;2022-09-12T01:32:09;11.05;;;3.90;;
68803;SDS011;55787;52.678;13.314;2022-09-12T01:37:58;10.13;;;3.50;;
68803;SDS011;55787;52.678;13.314;2022-09-12T01:41:17;8.77;;;3.42;;
68803;SDS011;55787;52.678;13.314;2022-09-12T01:46:18;9.40;;;3.33;;
68803;SDS011;55787;52.678;13.314;2022-09-12T01:48:56;8.25;;;3.10;;
68803;SDS011;55787;52.678;13.314;2022-09-12T01:51:35;10.52;;;3.60;;
68803;SDS011;55787;52.678;13.314;2022-09-12T01:54:08;8.38;;;3.40;;
68803;SDS011;55787;52.678;13.314;2022-09-12T01:56:39;8.60;;;3.00;;
68803;SDS011;55787;52.678;13.314;2022-09-12T02:02:14;9.13;;;3.10;;
68803;SDS011;55787;52.678;13.314;2022-09-12T02:04:44;10.05;;;3.25;;
68803;SDS011;55787;52.678;13.314;2022-09-12T02:07:27;8.45;;;2.95;;
68803;SDS011;55787;52.678;13.314;2022-09-12T02:10:00;9.47;;;3.33;;
68803;SDS011;55787;52.678;13.314;2022-09-12T02:12:36;8.55;;;3.20;;
68803;SDS011;55787;52.678;13.314;2022-09-12T02:15:09;8.40;;;3.42;;
68803;SDS011;55787;52.678;13.314;2022-09-12T02:17:39;9.40;;;3.75;;
68803;SDS011;55787;52.678;13.314;2022-09-12T02:20:19;9.48;;;3.75;;
68803;SDS011;55787;52.678;13.314;2022-09-12T02:23:12;10.97;;;3.77;;
68803;SDS011;55787;52.678;13.314;2022-09-12T02:25:45;10.85;;;3.85;;
68803;SDS011;55787;52.678;13.314;2022-09-12T02:28:17;9.05;;;3.53;;
68803;SDS011;55787;52.678;13.314;2022-09-12T02:31:04;10.50;;;3.65;;
68803;SDS011;55787;52.678;13.314;2022-09-12T02:36:51;10.00;;;3.80;;
68803;SDS011;55787;52.678;13.314;2022-09-12T02:39:29;9.93;;;3.55;;
68803;SDS011;55787;52.678;13.314;2022-09-12T02:41:57;11.13;;;3.70;;
68803;SDS011;55787;52.678;13.314;2022-09-12T02:44:25;9.38;;;3.63;;
68803;SDS011;55787;52.678;13.314;2022-09-12T02:46:54;9.05;;;3.72;;
68803;SDS011;55787;52.678;13.314;2022-09-12T02:49:24;10.50;;;3.47;;
68803;SDS011;55787;52.678;13.314;2022-09-12T02:51:51;10.05;;;3.63;;
68803;SDS011;55787;52.678;13.314;2022-09-12T02:54:17;9.43;;;4.07;;
68803;SDS011;55787;52.678;13.314;2022-09-12T02:56:46;9.57;;;3.50;;
68803;SDS011;55787;52.678;13.314;2022-09-12T02:59:15;9.68;;;3.70;;
68803;SDS011;55787;52.678;13.314;2022-09-12T03:02:04;10.20;;;3.70;;
68803;SDS011;55787;52.678;13.314;2022-09-12T03:04:51;10.50;;;3.70;;
68803;SDS011;55787;52.678;13.314;2022-09-12T03:07:45;9.95;;;3.88;;
68803;SDS011;55787;52.678;13.314;2022-09-12T03:10:22;9.07;;;3.55;;
68803;SDS011;55787;52.678;13.314;2022-09-12T03:24:19;9.95;;;3.60;;
68803;SDS011;55787;52.678;13.314;2022-09-12T03:26:51;11.23;;;3.85;;
68803;SDS011;55787;52.678;13.314;2022-09-12T03:29:20;9.50;;;3.70;;
68803;SDS011;55787;52.678;13.314;2022-09-12T03:31:48;9.35;;;3.25;;
68803;SDS011;55787;52.678;13.314;2022-09-12T03:34:17;10.07;;;3.72;;
68803;SDS011;55787;52.678;13.314;2022-09-12T03:36:45;9.98;;;3.50;;
68803;SDS011;55787;52.678;13.314;2022-09-12T03:39:12;9.15;;;3.63;;
68803;SDS011;55787;52.678;13.314;2022-09-12T03:41:38;9.10;;;3.47;;
68803;SDS011;55787;52.678;13.314;2022-09-12T03:44:05;9.10;;;3.55;;
68803;SDS011;55787;52.678;13.314;2022-09-12T03:46:32;8.70;;;3.50;;
68803;SDS011;55787;52.678;13.314;2022-09-12T03:48:58;8.85;;;3.58;;
68803;SDS011;55787;52.678;13.314;2022-09-12T03:51:25;8.75;;;3.60;;
68803;SDS011;55787;52.678;13.314;2022-09-12T03:53:51;9.30;;;3.37;;
68803;SDS011;55787;52.678;13.314;2022-09-12T03:56:18;10.73;;;3.42;;
68803;SDS011;55787;52.678;13.314;2022-09-12T03:58:45;9.50;;;3.78;;
68803;SDS011;55787;52.678;13.314;2022-09-12T04:01:13;10.27;;;3.60;;
68803;SDS011;55787;52.678;13.314;2022-09-12T04:03:41;11.75;;;3.50;;
68803;SDS011;55787;52.678;13.314;2022-09-12T04:06:10;8.73;;;3.50;;
68803;SDS011;55787;52.678;13.314;2022-09-12T04:08:38;9.68;;;3.88;;
68803;SDS011;55787;52.678;13.314;2022-09-12T04:11:07;10.13;;;3.42;;
68803;SDS011;55787;52.678;13.314;2022-09-12T04:13:37;10.82;;;3.80;;
68803;SDS011;55787;52.678;13.314;2022-09-12T04:16:04;11.10;;;3.90;;
68803;SDS011;55787;52.678;13.314;2022-09-12T04:18:32;10.93;;;4.00;;
68803;SDS011;55787;52.678;13.314;2022-09-12T04:21:03;9.65;;;3.78;;
68803;SDS011;55787;52.678;13.314;2022-09-12T04:23:34;9.70;;;3.72;;
68803;SDS011;55787;52.678;13.314;2022-09-12T04:26:01;10.32;;;3.70;;
68803;SDS011;55787;52.678;13.314;2022-09-12T04:28:31;10.65;;;3.72;;
68803;SDS011;55787;52.678;13.314;2022-09-12T04:31:01;10.37;;;3.73;;
68803;SDS011;55787;52.678;13.314;2022-09-12T04:33:30;9.55;;;3.63;;
68803;SDS011;55787;52.678;13.314;2022-09-12T04:36:01;11.50;;;4.07;;
68803;SDS011;55787;52.678;13.314;2022-09-12T04:38:42;12.40;;;3.90;;
68803;SDS011;55787;52.678;13.314;2022-09-12T04:41:11;10.77;;;3.97;;
68803;SDS011;55787;52.678;13.314;2022-09-12T04:43:50;9.73;;;3.90;;
68803;SDS011;55787;52.678;13.314;2022-09-12T04:46:18;10.90;;;4.45;;
68803;SDS011;55787;52.678;13.314;2022-09-12T04:48:46;10.32;;;4.03;;
68803;SDS011;55787;52.678;13.314;2022-09-12T04:51:18;13.32;;;3.40;;
68803;SDS011;55787;52.678;13.314;2022-09-12T04:53:47;11.48;;;3.40;;
68803;SDS011;55787;52.678;13.314;2022-09-12T04:56:15;9.57;;;3.50;;
68803;SDS011;55787;52.678;13.314;2022-09-12T04:58:41;9.75;;;3.60;;
68803;SDS011;55787;52.678;13.314;2022-09-12T05:01:12;11.73;;;4.07;;
68803;SDS011;55787;52.678;13.314;2022-09-12T05:03:43;12.00;;;4.40;;
68803;SDS011;55787;52.678;13.314;2022-09-12T05:06:12;11.75;;;4.28;;
68803;SDS011;55787;52.678;13.314;2022-09-12T05:08:41;13.00;;;5.10;;
68803;SDS011;55787;52.678;13.314;2022-09-12T05:11:18;14.50;;;5.57;;
68803;SDS011;55787;52.678;13.314;2022-09-12T05:13:55;14.07;;;5.68;;
68803;SDS011;55787;52.678;13.314;2022-09-12T05:16:23;14.73;;;5.57;;
68803;SDS011;55787;52.678;13.314;2022-09-12T05:18:51;13.77;;;5.60;;
68803;SDS011;55787;52.678;13.314;2022-09-12T05:21:19;13.17;;;5.57;;
68803;SDS011;55787;52.678;13.314;2022-09-12T05:23:51;14.00;;;5.72;;
68803;SDS011;55787;52.678;13.314;2022-09-12T05:26:19;13.90;;;5.65;;
68803;SDS011;55787;52.678;13.314;2022-09-12T05:28:46;15.57;;;5.65;;
68803;SDS011;55787;52.678;13.314;2022-09-12T05:31:18;17.23;;;6.85;;
68803;SDS011;55787;52.678;13.314;2022-09-12T05:33:47;17.07;;;6.33;;
68803;SDS011;55787;52.678;13.314;2022-09-12T05:36:16;17.95;;;6.72;;
68803;SDS011;55787;52.678;13.314;2022-09-12T05:38:47;20.90;;;7.00;;
68803;SDS011;55787;52.678;13.314;2022-09-12T05:41:15;16.23;;;6.65;;
68803;SDS011;55787;52.678;13.314;2022-09-12T05:43:50;16.52;;;6.65;;
68803;SDS011;55787;52.678;13.314;2022-09-12T05:46:22;19.43;;;7.60;;
68803;SDS011;55787;52.678;13.314;2022-09-12T05:48:51;17.55;;;7.57;;
68803;SDS011;55787;52.678;13.314;2022-09-12T05:51:23;20.92;;;7.93;;
68803;SDS011;55787;52.678;13.314;2022-09-12T05:53:53;21.13;;;7.95;;
68803;SDS011;55787;52.678;13.314;2022-09-12T05:56:24;24.88;;;8.57;;
68803;SDS011;55787;52.678;13.314;2022-09-12T06:01:27;25.35;;;9.10;;
68803;SDS011;55787;52.678;13.314;2022-09-12T06:03:56;24.98;;;9.48;;
68803;SDS011;55787;52.678;13.314;2022-09-12T06:06:26;25.85;;;9.07;;
68803;SDS011;55787;52.678;13.314;2022-09-12T06:08:58;25.50;;;10.05;;
68803;SDS011;55787;52.678;13.314;2022-09-12T06:11:27;30.87;;;10.77;;
68803;SDS011;55787;52.678;13.314;2022-09-12T06:13:55;26.25;;;10.57;;
68803;SDS011;55787;52.678;13.314;2022-09-12T06:16:24;30.48;;;11.07;;
68803;SDS011;55787;52.678;13.314;2022-09-12T06:18:53;27.17;;;10.65;;
68803;SDS011;55787;52.678;13.314;2022-09-12T06:21:21;26.27;;;9.93;;
68803;SDS011;55787;52.678;13.314;2022-09-12T06:23:49;19.93;;;8.63;;
68803;SDS011;55787;52.678;13.314;2022-09-12T06:26:16;13.88;;;7.05;;
68803;SDS011;55787;52.678;13.314;2022-09-12T06:28:46;14.77;;;6.70;;
68803;SDS011;55787;52.678;13.314;2022-09-12T06:31:14;12.50;;;6.25;;
68803;SDS011;55787;52.678;13.314;2022-09-12T06:33:46;13.02;;;6.35;;
68803;SDS011;55787;52.678;13.314;2022-09-12T06:36:15;13.40;;;6.07;;
68803;SDS011;55787;52.678;13.314;2022-09-12T06:38:47;11.40;;;5.53;;
68803;SDS011;55787;52.678;13.314;2022-09-12T06:41:19;11.80;;;4.95;;
68803;SDS011;55787;52.678;13.314;2022-09-12T06:43:47;10.45;;;4.95;;
68803;SDS011;55787;52.678;13.314;2022-09-12T06:46:13;11.40;;;4.95;;
68803;SDS011;55787;52.678;13.314;2022-09-12T06:48:40;9.73;;;4.53;;
68803;SDS011;55787;52.678;13.314;2022-09-12T06:51:11;9.15;;;4.53;;
68803;SDS011;55787;52.678;13.314;2022-09-12T06:53:40;10.60;;;4.68;;
68803;SDS011;55787;52.678;13.314;2022-09-12T06:56:28;9.50;;;4.40;;
68803;SDS011;55787;52.678;13.314;2022-09-12T06:58:55;8.20;;;4.35;;
68803;SDS011;55787;52.678;13.314;2022-09-12T07:03:54;8.02;;;4.10;;
68803;SDS011;55787;52.678;13.314;2022-09-12T07:06:23;9.73;;;4.40;;
68803;SDS011;55787;52.678;13.314;2022-09-12T07:08:55;8.77;;;4.32;;
68803;SDS011;55787;52.678;13.314;2022-09-12T07:11:24;9.48;;;4.38;;
68803;SDS011;55787;52.678;13.314;2022-09-12T07:13:54;8.10;;;3.83;;
68803;SDS011;55787;52.678;13.314;2022-09-12T07:16:21;8.60;;;4.20;;
68803;SDS011;55787;52.678;13.314;2022-09-12T07:18:51;7.60;;;4.20;;
68803;SDS011;55787;52.678;13.314;2022-09-12T07:21:19;8.43;;;4.30;;
68803;SDS011;55787;52.678;13.314;2022-09-12T07:23:46;8.25;;;3.75;;
68803;SDS011;55787;52.678;13.314;2022-09-12T07:26:13;8.20;;;4.23;;
68803;SDS011;55787;52.678;13.314;2022-09-12T07:28:41;9.10;;;3.85;;
68803;SDS011;55787;52.678;13.314;2022-09-12T07:31:09;9.73;;;4.50;;
68803;SDS011;55787;52.678;13.314;2022-09-12T07:33:39;8.13;;;3.90;;
68803;SDS011;55787;52.678;13.314;2022-09-12T07:36:10;8.27;;;4.20;;
68803;SDS011;55787;52.678;13.314;2022-09-12T07:38:41;9.03;;;4.27;;
68803;SDS011;55787;52.678;13.314;2022-09-12T07:41:28;8.07;;;3.50;;
68803;SDS011;55787;52.678;13.314;2022-09-12T07:43:57;7.80;;;3.65;;
68803;SDS011;55787;52.678;13.314;2022-09-12T07:46:24;8.18;;;3.75;;
68803;SDS011;55787;52.678;13.314;2022-09-12T07:48:52;8.80;;;3.63;;
68803;SDS011;55787;52.678;13.314;2022-09-12T07:51:20;6.70;;;3.13;;
68803;SDS011;55787;52.678;13.314;2022-09-12T07:53:47;10.10;;;3.10;;
68803;SDS011;55787;52.678;13.314;2022-09-12T07:56:14;8.85;;;2.97;;
68803;SDS011;55787;52.678;13.314;2022-09-12T07:58:41;8.25;;;3.15;;
68803;SDS011;55787;52.678;13.314;2022-09-12T08:01:09;6.53;;;3.28;;
68803;SDS011;55787;52.678;13.314;2022-09-12T08:03:41;6.93;;;3.20;;
68803;SDS011;55787;52.678;13.314;2022-09-12T08:06:09;6.43;;;2.80;;
68803;SDS011;55787;52.678;13.314;2022-09-12T08:08:37;7.57;;;3.40;;
68803;SDS011;55787;52.678;13.314;2022-09-12T08:11:04;6.82;;;2.88;;
68803;SDS011;55787;52.678;13.314;2022-09-12T08:13:33;7.40;;;2.85;;
68803;SDS011;55787;52.678;13.314;2022-09-12T08:16:03;7.23;;;2.73;;
68803;SDS011;55787;52.678;13.314;2022-09-12T08:18:31;6.90;;;2.70;;
68803;SDS011;55787;52.678;13.314;2022-09-12T08:21:03;8.38;;;2.80;;
68803;SDS011;55787;52.678;13.314;2022-09-12T08:23:31;6.65;;;2.95;;
68803;SDS011;55787;52.678;13.314;2022-09-12T08:25:59;5.82;;;2.45;;
68803;SDS011;55787;52.678;13.314;2022-09-12T08:28:32;6.00;;;2.57;;
68803;SDS011;55787;52.678;13.314;2022-09-12T08:31:03;6.60;;;2.33;;
68803;SDS011;55787;52.678;13.314;2022-09-12T08:33:34;7.05;;;2.58;;
68803;SDS011;55787;52.678;13.314;2022-09-12T08:36:01;6.85;;;3.00;;
68803;SDS011;55787;52.678;13.314;2022-09-12T08:38:32;7.93;;;2.67;;
68803;SDS011;55787;52.678;13.314;2022-09-12T08:43:32;5.80;;;2.95;;
68803;SDS011;55787;52.678;13.314;2022-09-12T08:46:07;6.60;;;2.50;;
68803;SDS011;55787;52.678;13.314;2022-09-12T08:48:38;5.63;;;2.85;;
68803;SDS011;55787;52.678;13.314;2022-09-12T08:51:08;5.88;;;2.63;;
68803;SDS011;55787;52.678;13.314;2022-09-12T08:53:38;6.50;;;2.00;;
68803;SDS011;55787;52.678;13.314;2022-09-12T08:56:05;6.82;;;2.40;;
68803;SDS011;55787;52.678;13.314;2022-09-12T08:58:38;6.20;;;2.53;;
68803;SDS011;55787;52.678;13.314;2022-09-12T09:01:07;5.47;;;2.30;;
68803;SDS011;55787;52.678;13.314;2022-09-12T09:07:06;6.00;;;2.10;;
68803;SDS011;55787;52.678;13.314;2022-09-12T09:10:02;7.22;;;2.25;;
68803;SDS011;55787;52.678;13.314;2022-09-12T09:13:05;6.22;;;2.72;;
68803;SDS011;55787;52.678;13.314;2022-09-12T09:18:42;6.18;;;2.20;;
68803;SDS011;55787;52.678;13.314;2022-09-12T09:24:15;6.05;;;2.53;;
68803;SDS011;55787;52.678;13.314;2022-09-12T09:26:52;5.50;;;2.20;;
68803;SDS011;55787;52.678;13.314;2022-09-12T09:29:27;6.18;;;2.75;;
68803;SDS011;55787;52.678;13.314;2022-09-12T09:32:00;5.90;;;2.22;;
68803;SDS011;55787;52.678;13.314;2022-09-12T09:34:37;5.97;;;2.50;;
68803;SDS011;55787;52.678;13.314;2022-09-12T09:37:20;5.68;;;2.50;;
68803;SDS011;55787;52.678;13.314;2022-09-12T09:40:06;5.43;;;2.83;;
68803;SDS011;55787;52.678;13.314;2022-09-12T09:42:40;5.80;;;2.20;;
68803;SDS011;55787;52.678;13.314;2022-09-12T09:45:27;6.70;;;2.20;;
68803;SDS011;55787;52.678;13.314;2022-09-12T09:50:36;6.28;;;1.98;;
68803;SDS011;55787;52.678;13.314;2022-09-12T09:53:03;5.60;;;2.25;;
68803;SDS011;55787;52.678;13.314;2022-09-12T09:55:33;8.23;;;2.42;;
68803;SDS011;55787;52.678;13.314;2022-09-12T09:58:05;5.45;;;2.15;;
68803;SDS011;55787;52.678;13.314;2022-09-12T10:00:37;5.27;;;1.93;;
68803;SDS011;55787;52.678;13.314;2022-09-12T10:08:23;5.53;;;2.10;;
68803;SDS011;55787;52.678;13.314;2022-09-12T10:10:58;4.90;;;1.75;;
68803;SDS011;55787;52.678;13.314;2022-09-12T10:13:38;5.47;;;2.50;;
68803;SDS011;55787;52.678;13.314;2022-09-12T10:16:19;5.78;;;2.15;;
68803;SDS011;55787;52.678;13.314;2022-09-12T10:18:51;5.45;;;2.30;;
68803;SDS011;55787;52.678;13.314;2022-09-12T10:23:58;5.05;;;1.95;;
68803;SDS011;55787;52.678;13.314;2022-09-12T10:26:53;6.53;;;2.43;;
68803;SDS011;55787;52.678;13.314;2022-09-12T10:29:24;5.32;;;2.15;;
68803;SDS011;55787;52.678;13.314;2022-09-12T10:31:57;5.18;;;2.22;;
68803;SDS011;55787;52.678;13.314;2022-09-12T10:34:27;5.32;;;2.33;;
68803;SDS011;55787;52.678;13.314;2022-09-12T10:36:58;5.80;;;2.40;;
68803;SDS011;55787;52.678;13.314;2022-09-12T10:39:27;5.67;;;1.90;;
68803;SDS011;55787;52.678;13.314;2022-09-12T10:41:56;5.43;;;1.70;;
68803;SDS011;55787;52.678;13.314;2022-09-12T10:44:24;6.15;;;2.40;;
68803;SDS011;55787;52.678;13.314;2022-09-12T10:47:17;5.30;;;2.30;;
68803;SDS011;55787;52.678;13.314;2022-09-12T10:49:45;6.68;;;2.13;;
68803;SDS011;55787;52.678;13.314;2022-09-12T10:52:30;5.20;;;2.20;;
68803;SDS011;55787;52.678;13.314;2022-09-12T10:54:57;4.53;;;1.50;;
68803;SDS011;55787;52.678;13.314;2022-09-12T10:57:31;5.90;;;1.40;;
68803;SDS011;55787;52.678;13.314;2022-09-12T11:00:14;4.95;;;1.20;;
68803;SDS011;55787;52.678;13.314;2022-09-12T11:03:28;5.28;;;1.30;;
68803;SDS011;55787;52.678;13.314;2022-09-12T11:24:43;5.47;;;1.63;;
68803;SDS011;55787;52.678;13.314;2022-09-12T11:30:17;5.40;;;1.65;;
68803;SDS011;55787;52.678;13.314;2022-09-12T11:35:27;5.03;;;1.40;;
68803;SDS011;55787;52.678;13.314;2022-09-12T11:40:52;5.53;;;1.65;;
68803;SDS011;55787;52.678;13.314;2022-09-12T11:43:36;4.80;;;1.60;;
68803;SDS011;55787;52.678;13.314;2022-09-12T11:46:39;5.80;;;1.90;;
68803;SDS011;55787;52.678;13.314;2022-09-12T11:51:36;5.53;;;1.83;;
68803;SDS011;55787;52.678;13.314;2022-09-12T11:56:48;5.13;;;1.60;;
68803;SDS011;55787;52.678;13.314;2022-09-12T11:59:34;4.83;;;1.70;;
68803;SDS011;55787;52.678;13.314;2022-09-12T12:02:14;5.20;;;1.70;;
68803;SDS011;55787;52.678;13.314;2022-09-12T12:07:52;4.80;;;1.58;;
68803;SDS011;55787;52.678;13.314;2022-09-12T12:10:42;4.90;;;1.67;;
68803;SDS011;55787;52.678;13.314;2022-09-12T12:13:24;4.90;;;1.60;;
68803;SDS011;55787;52.678;13.314;2022-09-12T12:15:58;4.80;;;1.45;;
68803;SDS011;55787;52.678;13.314;2022-09-12T12:18:29;4.70;;;1.42;;
68803;SDS011;55787;52.678;13.314;2022-09-12T12:21:15;5.13;;;1.52;;
68803;SDS011;55787;52.678;13.314;2022-09-12T12:29:11;4.57;;;1.40;;
68803;SDS011;55787;52.678;13.314;2022-09-12T12:34:27;4.20;;;0.90;;
68803;SDS011;55787;52.678;13.314;2022-09-12T12:36:57;4.82;;;0.90;;
68803;SDS011;55787;52.678;13.314;2022-09-12T12:47:53;6.05;;;1.20;;
68803;SDS011;55787;52.678;13.314;2022-09-12T12:50:26;5.50;;;1.23;;
68803;SDS011;55787;52.678;13.314;2022-09-12T12:52:55;5.10;;;1.13;;
68803;SDS011;55787;52.678;13.314;2022-09-12T12:55:37;5.22;;;1.10;;
68803;SDS011;55787;52.678;13.314;2022-09-12T13:03:37;5.20;;;1.10;;
68803;SDS011;55787;52.678;13.314;2022-09-12T13:06:18;4.27;;;0.90;;
68803;SDS011;55787;52.678;13.314;2022-09-12T13:08:55;5.90;;;1.10;;
68803;SDS011;55787;52.678;13.314;2022-09-12T13:11:29;5.22;;;1.25;;
68803;SDS011;55787;52.678;13.314;2022-09-12T13:14:05;4.72;;;1.10;;
68803;SDS011;55787;52.678;13.314;2022-09-12T13:16:56;4.93;;;1.00;;
68803;SDS011;55787;52.678;13.314;2022-09-12T13:19:26;4.80;;;1.10;;
68803;SDS011;55787;52.678;13.314;2022-09-12T13:21:56;4.72;;;1.02;;
68803;SDS011;55787;52.678;13.314;2022-09-12T13:24:25;4.95;;;1.10;;
68803;SDS011;55787;52.678;13.314;2022-09-12T13:26:51;5.85;;;1.05;;
68803;SDS011;55787;52.678;13.314;2022-09-12T13:29:19;5.18;;;1.00;;
68803;SDS011;55787;52.678;13.314;2022-09-12T13:31:48;4.23;;;0.90;;
68803;SDS011;55787;52.678;13.314;2022-09-12T13:34:29;4.43;;;1.00;;
68803;SDS011;55787;52.678;13.314;2022-09-12T13:39:57;4.80;;;0.90;;
68803;SDS011;55787;52.678;13.314;2022-09-12T13:42:41;4.32;;;1.00;;
68803;SDS011;55787;52.678;13.314;2022-09-12T13:47:47;4.07;;;0.77;;
68803;SDS011;55787;52.678;13.314;2022-09-12T13:50:24;4.45;;;1.00;;
68803;SDS011;55787;52.678;13.314;2022-09-12T13:53:00;4.75;;;1.10;;
68803;SDS011;55787;52.678;13.314;2022-09-12T13:55:33;4.97;;;1.08;;
68803;SDS011;55787;52.678;13.314;2022-09-12T13:58:04;4.40;;;0.80;;
68803;SDS011;55787;52.678;13.314;2022-09-12T14:00:33;4.93;;;1.05;;
68803;SDS011;55787;52.678;13.314;2022-09-12T14:03:00;4.82;;;0.90;;
68803;SDS011;55787;52.678;13.314;2022-09-12T14:05:47;5.35;;;1.00;;
68803;SDS011;55787;52.678;13.314;2022-09-12T14:08:21;4.90;;;0.98;;
68803;SDS011;55787;52.678;13.314;2022-09-12T14:10:49;4.83;;;0.97;;
68803;SDS011;55787;52.678;13.314;2022-09-12T14:13:20;4.57;;;1.13;;
68803;SDS011;55787;52.678;13.314;2022-09-12T14:15:50;5.10;;;1.20;;
68803;SDS011;55787;52.678;13.314;2022-09-12T14:18:25;5.07;;;0.95;;
68803;SDS011;55787;52.678;13.314;2022-09-12T14:20:54;4.90;;;1.10;;
68803;SDS011;55787;52.678;13.314;2022-09-12T14:23:26;5.10;;;0.93;;
68803;SDS011;55787;52.678;13.314;2022-09-12T14:25:56;4.35;;;0.88;;
68803;SDS011;55787;52.678;13.314;2022-09-12T14:28:25;4.50;;;0.98;;
68803;SDS011;55787;52.678;13.314;2022-09-12T14:33:52;4.82;;;1.00;;
68803;SDS011;55787;52.678;13.314;2022-09-12T14:36:24;4.70;;;1.03;;
68803;SDS011;55787;52.678;13.314;2022-09-12T14:39:02;5.18;;;1.00;;
68803;SDS011;55787;52.678;13.314;2022-09-12T14:41:38;4.45;;;0.95;;
68803;SDS011;55787;52.678;13.314;2022-09-12T14:44:23;5.03;;;0.85;;
68803;SDS011;55787;52.678;13.314;2022-09-12T14:46:51;5.13;;;1.10;;
68803;SDS011;55787;52.678;13.314;2022-09-12T14:49:31;4.73;;;0.97;;
68803;SDS011;55787;52.678;13.314;2022-09-12T14:52:04;4.72;;;0.90;;
68803;SDS011;55787;52.678;13.314;2022-09-12T14:54:35;4.40;;;0.90;;
68803;SDS011;55787;52.678;13.314;2022-09-12T14:57:05;4.90;;;0.90;;
68803;SDS011;55787;52.678;13.314;2022-09-12T14:59:43;4.70;;;1.08;;
68803;SDS011;55787;52.678;13.314;2022-09-12T15:04:39;5.13;;;1.00;;
68803;SDS011;55787;52.678;13.314;2022-09-12T15:07:34;6.68;;;1.23;;
68803;SDS011;55787;52.678;13.314;2022-09-12T15:10:02;6.82;;;1.02;;
68803;SDS011;55787;52.678;13.314;2022-09-12T15:12:31;5.35;;;1.10;;
68803;SDS011;55787;52.678;13.314;2022-09-12T15:15:14;5.40;;;1.00;;
68803;SDS011;55787;52.678;13.314;2022-09-12T15:17:42;5.65;;;1.00;;
68803;SDS011;55787;52.678;13.314;2022-09-12T15:20:08;4.85;;;1.00;;
68803;SDS011;55787;52.678;13.314;2022-09-12T15:22:36;5.07;;;1.00;;
68803;SDS011;55787;52.678;13.314;2022-09-12T15:25:03;4.93;;;1.00;;
68803;SDS011;55787;52.678;13.314;2022-09-12T15:27:31;5.53;;;0.90;;
68803;SDS011;55787;52.678;13.314;2022-09-12T15:29:57;4.47;;;0.90;;
68803;SDS011;55787;52.678;13.314;2022-09-12T15:32:24;4.72;;;0.90;;
68803;SDS011;55787;52.678;13.314;2022-09-12T15:34:52;4.95;;;0.95;;
68803;SDS011;55787;52.678;13.314;2022-09-12T15:37:20;5.55;;;1.10;;
68803;SDS011;55787;52.678;13.314;2022-09-12T15:39:48;5.43;;;1.40;;
68803;SDS011;55787;52.678;13.314;2022-09-12T15:42:16;4.78;;;1.02;;
68803;SDS011;55787;52.678;13.314;2022-09-12T15:44:53;4.55;;;0.90;;
68803;SDS011;55787;52.678;13.314;2022-09-12T15:47:24;4.90;;;1.00;;
68803;SDS011;55787;52.678;13.314;2022-09-12T15:49:51;5.57;;;0.95;;
68803;SDS011;55787;52.678;13.314;2022-09-12T15:52:17;4.77;;;1.00;;
68803;SDS011;55787;52.678;13.314;2022-09-12T15:54:44;6.03;;;0.93;;
68803;SDS011;55787;52.678;13.314;2022-09-12T15:57:10;5.38;;;1.42;;
68803;SDS011;55787;52.678;13.314;2022-09-12T15:59:36;5.45;;;1.17;;
68803;SDS011;55787;52.678;13.314;2022-09-12T16:02:03;4.80;;;1.15;;
68803;SDS011;55787;52.678;13.314;2022-09-12T16:04:30;4.87;;;1.20;;
68803;SDS011;55787;52.678;13.314;2022-09-12T16:06:56;5.20;;;1.10;;
68803;SDS011;55787;52.678;13.314;2022-09-12T16:09:23;5.30;;;1.10;;
68803;SDS011;55787;52.678;13.314;2022-09-12T16:11:49;5.53;;;1.20;;
68803;SDS011;55787;52.678;13.314;2022-09-12T16:14:16;5.00;;;1.10;;
68803;SDS011;55787;52.678;13.314;2022-09-12T16:16:44;5.60;;;1.10;;
68803;SDS011;55787;52.678;13.314;2022-09-12T16:19:17;5.78;;;1.20;;
68803;SDS011;55787;52.678;13.314;2022-09-12T16:21:44;5.20;;;1.13;;
68803;SDS011;55787;52.678;13.314;2022-09-12T16:24:10;5.53;;;1.40;;
68803;SDS011;55787;52.678;13.314;2022-09-12T16:26:37;5.40;;;1.42;;
68803;SDS011;55787;52.678;13.314;2022-09-12T16:29:03;6.60;;;1.50;;
68803;SDS011;55787;52.678;13.314;2022-09-12T16:31:30;8.10;;;1.80;;
68803;SDS011;55787;52.678;13.314;2022-09-12T16:33:56;6.20;;;1.50;;
68803;SDS011;55787;52.678;13.314;2022-09-12T16:36:23;5.20;;;1.30;;
68803;SDS011;55787;52.678;13.314;2022-09-12T16:38:50;6.20;;;1.20;;
68803;SDS011;55787;52.678;13.314;2022-09-12T16:41:19;5.13;;;1.30;;
68803;SDS011;55787;52.678;13.314;2022-09-12T16:43:46;5.57;;;1.33;;
68803;SDS011;55787;52.678;13.314;2022-09-12T16:46:14;5.78;;;1.27;;
68803;SDS011;55787;52.678;13.314;2022-09-12T16:48:42;5.85;;;1.23;;
68803;SDS011;55787;52.678;13.314;2022-09-12T16:51:17;5.45;;;1.40;;
68803;SDS011;55787;52.678;13.314;2022-09-12T16:53:48;5.80;;;1.20;;
68803;SDS011;55787;52.678;13.314;2022-09-12T16:56:15;7.07;;;1.63;;
68803;SDS011;55787;52.678;13.314;2022-09-12T16:58:42;6.38;;;1.52;;
68803;SDS011;55787;52.678;13.314;2022-09-12T17:01:10;5.47;;;1.40;;
68803;SDS011;55787;52.678;13.314;2022-09-12T17:03:40;5.82;;;1.30;;
68803;SDS011;55787;52.678;13.314;2022-09-12T17:06:11;6.20;;;1.20;;
68803;SDS011;55787;52.678;13.314;2022-09-12T17:08:40;5.40;;;1.20;;
68803;SDS011;55787;52.678;13.314;2022-09-12T17:11:09;5.60;;;1.25;;